sensor_id;sensor_type;location;lat;lon;timestamp;temperature;humidity
25937;DHT22;13733;51.178;4.450;2023-05-07T00:00:38;16.70;99.90
25937;DHT22;13733;51.178;4.450;2023-05-07T00:03:04;16.60;99.90
25937;DHT22;13733;51.178;4.450;2023-05-07T00:05:29;16.60;99.90
25937;DHT22;13733;51.178;4.450;2023-05-07T00:07:55;16.60;99.90
25937;DHT22;13733;51.178;4.450;2023-05-07T00:10:21;16.60;99.90
25937;DHT22;13733;51.178;4.450;2023-05-07T00:12:47;16.60;99.90
25937;DHT22;13733;51.178;4.450;2023-05-07T00:15:13;16.60;99.90
25937;DHT22;13733;51.178;4.450;2023-05-07T00:17:38;16.60;99.90
25937;DHT22;13733;51.178;4.450;2023-05-07T00:20:07;16.60;99.90
25937;DHT22;13733;51.178;4.450;2023-05-07T00:22:33;16.60;99.90
25937;DHT22;13733;51.178;4.450;2023-05-07T00:24:59;16.60;99.90
25937;DHT22;13733;51.178;4.450;2023-05-07T00:27:25;16.60;99.90
25937;DHT22;13733;51.178;4.450;2023-05-07T00:29:51;16.70;99.90
25937;DHT22;13733;51.178;4.450;2023-05-07T00:32:17;16.70;99.90
25937;DHT22;13733;51.178;4.450;2023-05-07T00:34:43;16.70;99.90
25937;DHT22;13733;51.178;4.450;2023-05-07T00:37:09;16.60;99.90
25937;DHT22;13733;51.178;4.450;2023-05-07T00:39:35;16.60;99.90
25937;DHT22;13733;51.178;4.450;2023-05-07T00:42:01;16.60;99.90
25937;DHT22;13733;51.178;4.450;2023-05-07T00:44:28;16.60;99.90
25937;DHT22;13733;51.178;4.450;2023-05-07T00:46:58;16.60;99.90
25937;DHT22;13733;51.178;4.450;2023-05-07T00:49:38;16.60;99.90
25937;DHT22;13733;51.178;4.450;2023-05-07T00:52:06;16.60;99.90
25937;DHT22;13733;51.178;4.450;2023-05-07T00:54:34;16.60;99.90
25937;DHT22;13733;51.178;4.450;2023-05-07T00:57:02;16.50;99.90
25937;DHT22;13733;51.178;4.450;2023-05-07T00:59:31;16.50;99.90
25937;DHT22;13733;51.178;4.450;2023-05-07T01:01:57;16.40;99.90
25937;DHT22;13733;51.178;4.450;2023-05-07T01:04:23;16.40;99.90
25937;DHT22;13733;51.178;4.450;2023-05-07T01:06:50;16.40;99.90
25937;DHT22;13733;51.178;4.450;2023-05-07T01:09:17;16.30;99.90
25937;DHT22;13733;51.178;4.450;2023-05-07T01:11:44;16.30;99.90
25937;DHT22;13733;51.178;4.450;2023-05-07T01:14:11;16.20;99.90
25937;DHT22;13733;51.178;4.450;2023-05-07T01:16:37;16.20;99.90
25937;DHT22;13733;51.178;4.450;2023-05-07T01:19:03;16.20;99.90
25937;DHT22;13733;51.178;4.450;2023-05-07T01:21:32;16.20;99.90
25937;DHT22;13733;51.178;4.450;2023-05-07T01:23:59;16.20;99.90
25937;DHT22;13733;51.178;4.450;2023-05-07T01:26:25;16.20;99.90
25937;DHT22;13733;51.178;4.450;2023-05-07T01:28:51;16.20;99.90
25937;DHT22;13733;51.178;4.450;2023-05-07T01:31:17;16.10;99.90
25937;DHT22;13733;51.178;4.450;2023-05-07T01:33:44;16.20;99.90
25937;DHT22;13733;51.178;4.450;2023-05-07T01:36:12;16.20;99.90
25937;DHT22;13733;51.178;4.450;2023-05-07T01:38:39;16.20;99.90
25937;DHT22;13733;51.178;4.450;2023-05-07T01:41:06;16.20;99.90
25937;DHT22;13733;51.178;4.450;2023-05-07T01:43:33;16.20;99.90
25937;DHT22;13733;51.178;4.450;2023-05-07T01:45:59;16.10;99.90
25937;DHT22;13733;51.178;4.450;2023-05-07T01:48:27;16.00;99.90
25937;DHT22;13733;51.178;4.450;2023-05-07T01:50:53;16.00;99.90
25937;DHT22;13733;51.178;4.450;2023-05-07T01:53:20;15.80;99.90
25937;DHT22;13733;51.178;4.450;2023-05-07T01:55:46;15.80;99.90
25937;DHT22;13733;51.178;4.450;2023-05-07T01:58:12;15.70;99.90
25937;DHT22;13733;51.178;4.450;2023-05-07T02:00:38;15.70;99.90
25937;DHT22;13733;51.178;4.450;2023-05-07T02:03:04;15.70;99.90
25937;DHT22;13733;51.178;4.450;2023-05-07T02:05:40;15.60;99.90
25937;DHT22;13733;51.178;4.450;2023-05-07T02:08:24;15.70;99.90
25937;DHT22;13733;51.178;4.450;2023-05-07T02:10:50;15.70;99.90
25937;DHT22;13733;51.178;4.450;2023-05-07T02:13:17;15.60;99.90
25937;DHT22;13733;51.178;4.450;2023-05-07T02:15:42;15.60;99.90
25937;DHT22;13733;51.178;4.450;2023-05-07T02:18:11;15.60;99.90
25937;DHT22;13733;51.178;4.450;2023-05-07T02:20:37;15.60;99.90
25937;DHT22;13733;51.178;4.450;2023-05-07T02:23:03;15.60;99.90
25937;DHT22;13733;51.178;4.450;2023-05-07T02:25:30;15.70;99.90
25937;DHT22;13733;51.178;4.450;2023-05-07T02:27:56;15.70;99.90
25937;DHT22;13733;51.178;4.450;2023-05-07T02:30:33;15.80;99.90
25937;DHT22;13733;51.178;4.450;2023-05-07T02:32:59;15.80;99.90
25937;DHT22;13733;51.178;4.450;2023-05-07T02:35:25;15.90;99.90
25937;DHT22;13733;51.178;4.450;2023-05-07T02:37:52;15.80;99.90
25937;DHT22;13733;51.178;4.450;2023-05-07T02:40:18;15.90;99.90
25937;DHT22;13733;51.178;4.450;2023-05-07T02:42:44;15.90;99.90
25937;DHT22;13733;51.178;4.450;2023-05-07T02:45:10;15.90;99.90
25937;DHT22;13733;51.178;4.450;2023-05-07T02:47:38;15.90;99.90
25937;DHT22;13733;51.178;4.450;2023-05-07T02:50:04;15.90;99.90
25937;DHT22;13733;51.178;4.450;2023-05-07T02:52:30;15.90;99.90
25937;DHT22;13733;51.178;4.450;2023-05-07T02:54:56;16.00;99.90
25937;DHT22;13733;51.178;4.450;2023-05-07T02:57:22;15.90;99.90
25937;DHT22;13733;51.178;4.450;2023-05-07T02:59:48;16.00;99.90
25937;DHT22;13733;51.178;4.450;2023-05-07T03:02:15;16.00;99.90
25937;DHT22;13733;51.178;4.450;2023-05-07T03:04:42;16.00;99.90
25937;DHT22;13733;51.178;4.450;2023-05-07T03:07:07;16.10;99.90
25937;DHT22;13733;51.178;4.450;2023-05-07T03:09:33;16.10;99.90
25937;DHT22;13733;51.178;4.450;2023-05-07T03:11:59;16.20;99.90
25937;DHT22;13733;51.178;4.450;2023-05-07T03:14:27;16.20;99.90
25937;DHT22;13733;51.178;4.450;2023-05-07T03:16:53;16.20;99.90
25937;DHT22;13733;51.178;4.450;2023-05-07T03:19:19;16.30;99.90
25937;DHT22;13733;51.178;4.450;2023-05-07T03:21:44;16.30;99.90
25937;DHT22;13733;51.178;4.450;2023-05-07T03:24:10;16.30;99.90
25937;DHT22;13733;51.178;4.450;2023-05-07T03:26:36;16.20;99.90
25937;DHT22;13733;51.178;4.450;2023-05-07T03:29:02;16.20;99.90
25937;DHT22;13733;51.178;4.450;2023-05-07T03:31:28;16.20;99.90
25937;DHT22;13733;51.178;4.450;2023-05-07T03:33:56;16.20;99.90
25937;DHT22;13733;51.178;4.450;2023-05-07T03:36:23;16.20;99.90
25937;DHT22;13733;51.178;4.450;2023-05-07T03:38:50;16.20;99.90
25937;DHT22;13733;51.178;4.450;2023-05-07T03:41:19;16.20;99.90
25937;DHT22;13733;51.178;4.450;2023-05-07T03:43:46;16.20;99.90
25937;DHT22;13733;51.178;4.450;2023-05-07T03:46:12;16.20;99.90
25937;DHT22;13733;51.178;4.450;2023-05-07T03:48:38;16.20;99.90
25937;DHT22;13733;51.178;4.450;2023-05-07T03:51:05;16.20;99.90
25937;DHT22;13733;51.178;4.450;2023-05-07T03:53:32;16.20;99.90
25937;DHT22;13733;51.178;4.450;2023-05-07T03:55:58;16.20;99.90
25937;DHT22;13733;51.178;4.450;2023-05-07T03:58:24;16.10;99.90
25937;DHT22;13733;51.178;4.450;2023-05-07T04:00:52;16.10;99.90
25937;DHT22;13733;51.178;4.450;2023-05-07T04:03:23;16.10;99.90
25937;DHT22;13733;51.178;4.450;2023-05-07T04:05:50;16.10;99.90
25937;DHT22;13733;51.178;4.450;2023-05-07T04:08:16;16.10;99.90
25937;DHT22;13733;51.178;4.450;2023-05-07T04:10:46;16.10;99.90
25937;DHT22;13733;51.178;4.450;2023-05-07T04:13:13;16.00;99.90
25937;DHT22;13733;51.178;4.450;2023-05-07T04:15:38;16.00;99.90
25937;DHT22;13733;51.178;4.450;2023-05-07T04:18:08;16.00;99.90
25937;DHT22;13733;51.178;4.450;2023-05-07T04:20:35;16.00;99.90
25937;DHT22;13733;51.178;4.450;2023-05-07T04:23:07;16.10;99.90
25937;DHT22;13733;51.178;4.450;2023-05-07T04:25:33;16.10;99.90
25937;DHT22;13733;51.178;4.450;2023-05-07T04:28:07;16.10;99.90
25937;DHT22;13733;51.178;4.450;2023-05-07T04:30:33;16.10;99.90
25937;DHT22;13733;51.178;4.450;2023-05-07T04:32:59;16.10;99.90
25937;DHT22;13733;51.178;4.450;2023-05-07T04:35:28;16.20;99.90
25937;DHT22;13733;51.178;4.450;2023-05-07T04:37:55;16.20;99.90
25937;DHT22;13733;51.178;4.450;2023-05-07T04:40:21;16.20;99.90
25937;DHT22;13733;51.178;4.450;2023-05-07T04:42:47;16.20;99.90
25937;DHT22;13733;51.178;4.450;2023-05-07T04:45:14;16.30;99.90
25937;DHT22;13733;51.178;4.450;2023-05-07T04:47:42;16.30;99.90
25937;DHT22;13733;51.178;4.450;2023-05-07T04:50:08;16.40;99.90
25937;DHT22;13733;51.178;4.450;2023-05-07T04:52:35;16.40;99.90
25937;DHT22;13733;51.178;4.450;2023-05-07T04:55:01;16.50;99.90
25937;DHT22;13733;51.178;4.450;2023-05-07T04:57:32;16.50;99.90
25937;DHT22;13733;51.178;4.450;2023-05-07T04:59:57;16.60;99.90
25937;DHT22;13733;51.178;4.450;2023-05-07T05:02:23;16.60;99.90
25937;DHT22;13733;51.178;4.450;2023-05-07T05:04:49;16.60;99.90
25937;DHT22;13733;51.178;4.450;2023-05-07T05:07:16;16.60;99.90
25937;DHT22;13733;51.178;4.450;2023-05-07T05:09:42;16.60;99.90
25937;DHT22;13733;51.178;4.450;2023-05-07T05:12:09;16.70;99.90
25937;DHT22;13733;51.178;4.450;2023-05-07T05:14:37;16.70;99.90
25937;DHT22;13733;51.178;4.450;2023-05-07T05:17:03;16.70;99.90
25937;DHT22;13733;51.178;4.450;2023-05-07T05:19:29;16.70;99.90
25937;DHT22;13733;51.178;4.450;2023-05-07T05:21:56;16.80;99.90
25937;DHT22;13733;51.178;4.450;2023-05-07T05:24:22;16.80;99.90
25937;DHT22;13733;51.178;4.450;2023-05-07T05:26:48;16.90;99.90
25937;DHT22;13733;51.178;4.450;2023-05-07T05:29:13;16.90;99.90
25937;DHT22;13733;51.178;4.450;2023-05-07T05:31:41;16.90;99.90
25937;DHT22;13733;51.178;4.450;2023-05-07T05:34:07;17.00;99.90
25937;DHT22;13733;51.178;4.450;2023-05-07T05:36:34;17.10;99.90
25937;DHT22;13733;51.178;4.450;2023-05-07T05:39:00;17.10;99.90
25937;DHT22;13733;51.178;4.450;2023-05-07T05:41:27;17.20;99.90
25937;DHT22;13733;51.178;4.450;2023-05-07T05:43:53;17.20;99.90
25937;DHT22;13733;51.178;4.450;2023-05-07T05:46:19;17.30;99.90
25937;DHT22;13733;51.178;4.450;2023-05-07T05:48:46;17.40;99.90
25937;DHT22;13733;51.178;4.450;2023-05-07T05:51:12;17.40;99.90
25937;DHT22;13733;51.178;4.450;2023-05-07T05:53:38;17.40;99.90
25937;DHT22;13733;51.178;4.450;2023-05-07T05:56:05;17.40;99.90
25937;DHT22;13733;51.178;4.450;2023-05-07T05:58:33;17.50;99.90
25937;DHT22;13733;51.178;4.450;2023-05-07T06:01:02;17.60;99.90
25937;DHT22;13733;51.178;4.450;2023-05-07T06:03:29;17.60;99.90
25937;DHT22;13733;51.178;4.450;2023-05-07T06:05:58;17.70;99.90
25937;DHT22;13733;51.178;4.450;2023-05-07T06:08:23;17.80;99.90
25937;DHT22;13733;51.178;4.450;2023-05-07T06:10:50;17.70;99.90
25937;DHT22;13733;51.178;4.450;2023-05-07T06:13:16;17.80;99.90
25937;DHT22;13733;51.178;4.450;2023-05-07T06:15:42;17.80;99.90
25937;DHT22;13733;51.178;4.450;2023-05-07T06:18:10;17.80;99.90
25937;DHT22;13733;51.178;4.450;2023-05-07T06:20:36;18.00;99.90
25937;DHT22;13733;51.178;4.450;2023-05-07T06:23:05;17.90;99.90
25937;DHT22;13733;51.178;4.450;2023-05-07T06:25:32;18.00;99.90
25937;DHT22;13733;51.178;4.450;2023-05-07T06:27:58;18.10;99.90
25937;DHT22;13733;51.178;4.450;2023-05-07T06:30:25;18.30;99.90
25937;DHT22;13733;51.178;4.450;2023-05-07T06:32:54;18.40;99.90
25937;DHT22;13733;51.178;4.450;2023-05-07T06:35:20;18.60;99.90
25937;DHT22;13733;51.178;4.450;2023-05-07T06:37:45;18.70;99.90
25937;DHT22;13733;51.178;4.450;2023-05-07T06:40:19;18.80;99.90
25937;DHT22;13733;51.178;4.450;2023-05-07T06:42:46;19.00;99.90
25937;DHT22;13733;51.178;4.450;2023-05-07T06:45:26;19.10;99.90
25937;DHT22;13733;51.178;4.450;2023-05-07T06:47:54;19.20;99.90
25937;DHT22;13733;51.178;4.450;2023-05-07T06:50:21;19.20;99.90
25937;DHT22;13733;51.178;4.450;2023-05-07T06:52:48;19.30;99.90
25937;DHT22;13733;51.178;4.450;2023-05-07T06:55:14;19.30;99.90
25937;DHT22;13733;51.178;4.450;2023-05-07T06:57:40;19.50;99.90
25937;DHT22;13733;51.178;4.450;2023-05-07T07:00:08;19.60;99.90
25937;DHT22;13733;51.178;4.450;2023-05-07T07:02:42;19.50;99.90
25937;DHT22;13733;51.178;4.450;2023-05-07T07:05:09;19.40;99.90
25937;DHT22;13733;51.178;4.450;2023-05-07T07:07:36;19.40;99.90
25937;DHT22;13733;51.178;4.450;2023-05-07T07:10:02;19.30;99.90
25937;DHT22;13733;51.178;4.450;2023-05-07T07:12:30;19.40;99.90
25937;DHT22;13733;51.178;4.450;2023-05-07T07:14:56;19.60;99.90
25937;DHT22;13733;51.178;4.450;2023-05-07T07:17:22;19.70;99.90
25937;DHT22;13733;51.178;4.450;2023-05-07T07:19:48;19.80;99.90
25937;DHT22;13733;51.178;4.450;2023-05-07T07:22:14;19.90;99.90
25937;DHT22;13733;51.178;4.450;2023-05-07T07:24:40;19.90;99.90
25937;DHT22;13733;51.178;4.450;2023-05-07T07:27:09;19.90;99.90
25937;DHT22;13733;51.178;4.450;2023-05-07T07:29:35;20.00;99.90
25937;DHT22;13733;51.178;4.450;2023-05-07T07:32:01;20.00;99.90
25937;DHT22;13733;51.178;4.450;2023-05-07T07:34:28;20.10;99.90
25937;DHT22;13733;51.178;4.450;2023-05-07T07:36:53;20.10;99.90
25937;DHT22;13733;51.178;4.450;2023-05-07T07:39:20;20.10;99.90
25937;DHT22;13733;51.178;4.450;2023-05-07T07:41:49;20.20;99.90
25937;DHT22;13733;51.178;4.450;2023-05-07T07:44:15;20.20;99.90
25937;DHT22;13733;51.178;4.450;2023-05-07T07:46:41;20.10;99.90
25937;DHT22;13733;51.178;4.450;2023-05-07T07:49:07;20.20;99.90
25937;DHT22;13733;51.178;4.450;2023-05-07T07:51:34;20.40;99.90
25937;DHT22;13733;51.178;4.450;2023-05-07T07:54:01;20.50;99.90
25937;DHT22;13733;51.178;4.450;2023-05-07T07:56:28;20.30;99.90
25937;DHT22;13733;51.178;4.450;2023-05-07T07:58:54;20.20;99.90
25937;DHT22;13733;51.178;4.450;2023-05-07T08:01:20;20.30;99.90
25937;DHT22;13733;51.178;4.450;2023-05-07T08:03:46;20.50;99.90
25937;DHT22;13733;51.178;4.450;2023-05-07T08:06:30;20.40;99.90
25937;DHT22;13733;51.178;4.450;2023-05-07T08:08:59;20.60;99.90
25937;DHT22;13733;51.178;4.450;2023-05-07T08:11:25;20.70;99.90
25937;DHT22;13733;51.178;4.450;2023-05-07T08:13:55;20.80;99.90
25937;DHT22;13733;51.178;4.450;2023-05-07T08:16:21;20.80;99.90
25937;DHT22;13733;51.178;4.450;2023-05-07T08:18:47;21.00;99.90
25937;DHT22;13733;51.178;4.450;2023-05-07T08:21:14;20.90;99.90
25937;DHT22;13733;51.178;4.450;2023-05-07T08:23:41;20.90;99.90
25937;DHT22;13733;51.178;4.450;2023-05-07T08:26:08;20.90;99.90
25937;DHT22;13733;51.178;4.450;2023-05-07T08:28:35;21.00;99.90
25937;DHT22;13733;51.178;4.450;2023-05-07T08:31:01;21.10;99.90
25937;DHT22;13733;51.178;4.450;2023-05-07T08:33:31;21.10;99.90
25937;DHT22;13733;51.178;4.450;2023-05-07T08:35:57;20.90;99.90
25937;DHT22;13733;51.178;4.450;2023-05-07T08:38:23;20.70;99.90
25937;DHT22;13733;51.178;4.450;2023-05-07T08:40:50;20.80;99.90
25937;DHT22;13733;51.178;4.450;2023-05-07T08:43:21;20.90;99.90
25937;DHT22;13733;51.178;4.450;2023-05-07T08:45:53;21.00;99.90
25937;DHT22;13733;51.178;4.450;2023-05-07T08:48:27;21.10;99.90
25937;DHT22;13733;51.178;4.450;2023-05-07T08:51:05;21.20;99.90
25937;DHT22;13733;51.178;4.450;2023-05-07T08:53:31;21.00;99.90
25937;DHT22;13733;51.178;4.450;2023-05-07T08:55:59;21.10;99.90
25937;DHT22;13733;51.178;4.450;2023-05-07T08:58:26;21.20;99.90
25937;DHT22;13733;51.178;4.450;2023-05-07T09:00:53;21.20;99.90
25937;DHT22;13733;51.178;4.450;2023-05-07T09:03:23;21.20;99.90
25937;DHT22;13733;51.178;4.450;2023-05-07T09:05:53;21.20;99.90
25937;DHT22;13733;51.178;4.450;2023-05-07T09:08:27;21.20;99.90
25937;DHT22;13733;51.178;4.450;2023-05-07T09:10:57;21.10;99.90
25937;DHT22;13733;51.178;4.450;2023-05-07T09:13:24;21.20;99.90
25937;DHT22;13733;51.178;4.450;2023-05-07T09:15:56;21.30;99.90
25937;DHT22;13733;51.178;4.450;2023-05-07T09:18:24;21.40;99.90
25937;DHT22;13733;51.178;4.450;2023-05-07T09:20:51;21.20;99.90
25937;DHT22;13733;51.178;4.450;2023-05-07T09:23:20;21.10;99.90
25937;DHT22;13733;51.178;4.450;2023-05-07T09:25:48;21.00;99.90
25937;DHT22;13733;51.178;4.450;2023-05-07T09:28:20;21.10;99.90
25937;DHT22;13733;51.178;4.450;2023-05-07T09:30:46;21.00;99.90
25937;DHT22;13733;51.178;4.450;2023-05-07T09:33:14;20.80;99.90
25937;DHT22;13733;51.178;4.450;2023-05-07T09:35:44;20.90;99.90
25937;DHT22;13733;51.178;4.450;2023-05-07T09:38:18;20.80;99.90
25937;DHT22;13733;51.178;4.450;2023-05-07T09:41:02;20.60;99.90
25937;DHT22;13733;51.178;4.450;2023-05-07T09:43:35;20.60;99.90
25937;DHT22;13733;51.178;4.450;2023-05-07T09:46:12;20.50;99.90
25937;DHT22;13733;51.178;4.450;2023-05-07T09:48:43;20.40;99.90
25937;DHT22;13733;51.178;4.450;2023-05-07T09:51:21;20.40;99.90
25937;DHT22;13733;51.178;4.450;2023-05-07T09:53:48;20.40;99.90
25937;DHT22;13733;51.178;4.450;2023-05-07T09:56:17;20.40;99.90
25937;DHT22;13733;51.178;4.450;2023-05-07T09:58:45;20.00;99.90
25937;DHT22;13733;51.178;4.450;2023-05-07T10:01:13;19.80;99.90
25937;DHT22;13733;51.178;4.450;2023-05-07T10:03:41;19.90;99.90
25937;DHT22;13733;51.178;4.450;2023-05-07T10:06:10;19.80;99.90
25937;DHT22;13733;51.178;4.450;2023-05-07T10:08:37;19.90;99.90
25937;DHT22;13733;51.178;4.450;2023-05-07T10:11:05;19.90;99.90
25937;DHT22;13733;51.178;4.450;2023-05-07T10:13:35;19.80;99.90
25937;DHT22;13733;51.178;4.450;2023-05-07T10:16:05;19.80;99.90
25937;DHT22;13733;51.178;4.450;2023-05-07T10:18:38;19.90;99.90
25937;DHT22;13733;51.178;4.450;2023-05-07T10:21:19;19.90;99.90
25937;DHT22;13733;51.178;4.450;2023-05-07T10:23:51;20.00;99.90
25937;DHT22;13733;51.178;4.450;2023-05-07T10:26:22;20.20;99.90
25937;DHT22;13733;51.178;4.450;2023-05-07T10:29:01;20.10;99.90
25937;DHT22;13733;51.178;4.450;2023-05-07T10:34:21;19.90;99.90
25937;DHT22;13733;51.178;4.450;2023-05-07T10:36:50;19.70;99.90
25937;DHT22;13733;51.178;4.450;2023-05-07T10:39:19;19.70;99.90
25937;DHT22;13733;51.178;4.450;2023-05-07T10:41:46;19.80;99.90
25937;DHT22;13733;51.178;4.450;2023-05-07T10:44:28;19.90;99.90
25937;DHT22;13733;51.178;4.450;2023-05-07T10:47:16;19.90;99.90
25937;DHT22;13733;51.178;4.450;2023-05-07T10:52:25;19.90;99.90
25937;DHT22;13733;51.178;4.450;2023-05-07T10:57:50;20.00;99.90
25937;DHT22;13733;51.178;4.450;2023-05-07T11:11:49;19.80;99.90
25937;DHT22;13733;51.178;4.450;2023-05-07T11:17:11;19.90;99.90
25937;DHT22;13733;51.178;4.450;2023-05-07T11:19:55;20.00;99.90
25937;DHT22;13733;51.178;4.450;2023-05-07T11:25:29;20.00;99.90
25937;DHT22;13733;51.178;4.450;2023-05-07T11:28:09;20.10;99.90
25937;DHT22;13733;51.178;4.450;2023-05-07T11:30:47;20.10;99.90
25937;DHT22;13733;51.178;4.450;2023-05-07T11:33:17;20.40;99.90
25937;DHT22;13733;51.178;4.450;2023-05-07T11:35:45;20.70;99.90
25937;DHT22;13733;51.178;4.450;2023-05-07T11:38:13;20.70;99.90
25937;DHT22;13733;51.178;4.450;2023-05-07T11:40:56;20.40;99.90
25937;DHT22;13733;51.178;4.450;2023-05-07T11:43:22;20.60;99.90
25937;DHT22;13733;51.178;4.450;2023-05-07T11:45:48;20.70;99.90
25937;DHT22;13733;51.178;4.450;2023-05-07T11:48:15;20.80;99.90
25937;DHT22;13733;51.178;4.450;2023-05-07T11:51:00;20.70;99.90
25937;DHT22;13733;51.178;4.450;2023-05-07T11:53:27;20.80;99.90
25937;DHT22;13733;51.178;4.450;2023-05-07T11:55:56;21.00;99.90
25937;DHT22;13733;51.178;4.450;2023-05-07T11:58:24;21.30;99.90
25937;DHT22;13733;51.178;4.450;2023-05-07T12:00:54;21.30;99.90
25937;DHT22;13733;51.178;4.450;2023-05-07T12:03:22;21.40;99.90
25937;DHT22;13733;51.178;4.450;2023-05-07T12:05:48;21.40;99.90
25937;DHT22;13733;51.178;4.450;2023-05-07T12:08:15;21.30;99.90
25937;DHT22;13733;51.178;4.450;2023-05-07T12:10:43;21.40;99.90
25937;DHT22;13733;51.178;4.450;2023-05-07T12:13:21;21.60;99.90
25937;DHT22;13733;51.178;4.450;2023-05-07T12:15:51;21.70;99.90
25937;DHT22;13733;51.178;4.450;2023-05-07T12:18:17;21.70;99.90
25937;DHT22;13733;51.178;4.450;2023-05-07T12:20:43;21.80;99.90
25937;DHT22;13733;51.178;4.450;2023-05-07T12:23:10;21.80;99.90
25937;DHT22;13733;51.178;4.450;2023-05-07T12:25:38;21.80;99.90
25937;DHT22;13733;51.178;4.450;2023-05-07T12:28:04;21.70;99.90
25937;DHT22;13733;51.178;4.450;2023-05-07T12:30:41;21.80;99.90
25937;DHT22;13733;51.178;4.450;2023-05-07T12:33:07;21.90;99.90
25937;DHT22;13733;51.178;4.450;2023-05-07T12:35:39;22.00;99.90
25937;DHT22;13733;51.178;4.450;2023-05-07T12:38:10;22.00;99.90
25937;DHT22;13733;51.178;4.450;2023-05-07T12:40:39;22.00;99.90
25937;DHT22;13733;51.178;4.450;2023-05-07T12:43:06;22.20;99.90
25937;DHT22;13733;51.178;4.450;2023-05-07T12:45:36;22.20;99.90
25937;DHT22;13733;51.178;4.450;2023-05-07T12:48:02;22.40;99.90
25937;DHT22;13733;51.178;4.450;2023-05-07T12:50:32;22.50;99.90
25937;DHT22;13733;51.178;4.450;2023-05-07T12:52:59;22.70;99.90
25937;DHT22;13733;51.178;4.450;2023-05-07T12:55:24;22.60;99.90
25937;DHT22;13733;51.178;4.450;2023-05-07T12:57:51;22.70;99.90
25937;DHT22;13733;51.178;4.450;2023-05-07T13:00:39;22.70;99.90
25937;DHT22;13733;51.178;4.450;2023-05-07T13:03:05;22.80;99.90
25937;DHT22;13733;51.178;4.450;2023-05-07T13:05:31;23.00;99.90
25937;DHT22;13733;51.178;4.450;2023-05-07T13:07:58;23.10;99.90
25937;DHT22;13733;51.178;4.450;2023-05-07T13:10:26;23.20;99.90
25937;DHT22;13733;51.178;4.450;2023-05-07T13:12:52;23.20;99.90
25937;DHT22;13733;51.178;4.450;2023-05-07T13:15:19;23.40;99.90
25937;DHT22;13733;51.178;4.450;2023-05-07T13:17:45;23.50;99.90
25937;DHT22;13733;51.178;4.450;2023-05-07T13:20:11;23.60;99.90
25937;DHT22;13733;51.178;4.450;2023-05-07T13:22:40;23.70;99.90
25937;DHT22;13733;51.178;4.450;2023-05-07T13:25:06;23.80;99.90
25937;DHT22;13733;51.178;4.450;2023-05-07T13:27:32;23.90;99.90
25937;DHT22;13733;51.178;4.450;2023-05-07T13:30:01;23.90;99.90
25937;DHT22;13733;51.178;4.450;2023-05-07T13:32:26;24.10;99.90
25937;DHT22;13733;51.178;4.450;2023-05-07T13:34:52;24.20;99.90
25937;DHT22;13733;51.178;4.450;2023-05-07T13:37:18;24.10;99.90
25937;DHT22;13733;51.178;4.450;2023-05-07T13:39:43;24.10;99.90
25937;DHT22;13733;51.178;4.450;2023-05-07T13:42:10;24.30;99.90
25937;DHT22;13733;51.178;4.450;2023-05-07T13:44:36;24.40;99.90
25937;DHT22;13733;51.178;4.450;2023-05-07T13:47:01;24.40;99.90
25937;DHT22;13733;51.178;4.450;2023-05-07T13:49:27;24.50;99.90
25937;DHT22;13733;51.178;4.450;2023-05-07T13:51:53;24.50;99.90
25937;DHT22;13733;51.178;4.450;2023-05-07T13:54:19;24.20;99.90
25937;DHT22;13733;51.178;4.450;2023-05-07T13:56:45;24.10;99.90
25937;DHT22;13733;51.178;4.450;2023-05-07T13:59:11;24.00;99.90
25937;DHT22;13733;51.178;4.450;2023-05-07T14:01:40;24.10;99.90
25937;DHT22;13733;51.178;4.450;2023-05-07T14:04:08;24.20;99.90
25937;DHT22;13733;51.178;4.450;2023-05-07T14:06:34;24.30;99.90
25937;DHT22;13733;51.178;4.450;2023-05-07T14:09:00;24.50;99.90
25937;DHT22;13733;51.178;4.450;2023-05-07T14:11:26;24.60;99.90
25937;DHT22;13733;51.178;4.450;2023-05-07T14:13:52;24.90;99.90
25937;DHT22;13733;51.178;4.450;2023-05-07T14:16:18;24.90;99.90
25937;DHT22;13733;51.178;4.450;2023-05-07T14:18:43;25.00;99.90
25937;DHT22;13733;51.178;4.450;2023-05-07T14:21:10;24.90;99.90
25937;DHT22;13733;51.178;4.450;2023-05-07T14:23:36;24.90;99.90
25937;DHT22;13733;51.178;4.450;2023-05-07T14:26:02;24.80;99.90
25937;DHT22;13733;51.178;4.450;2023-05-07T14:28:28;24.60;99.90
25937;DHT22;13733;51.178;4.450;2023-05-07T14:30:54;24.20;99.90
25937;DHT22;13733;51.178;4.450;2023-05-07T14:33:32;23.90;99.90
25937;DHT22;13733;51.178;4.450;2023-05-07T14:35:58;23.70;99.90
25937;DHT22;13733;51.178;4.450;2023-05-07T14:38:24;23.80;99.90
25937;DHT22;13733;51.178;4.450;2023-05-07T14:40:50;23.90;99.90
25937;DHT22;13733;51.178;4.450;2023-05-07T14:43:16;24.00;99.90
25937;DHT22;13733;51.178;4.450;2023-05-07T14:45:42;24.20;99.90
25937;DHT22;13733;51.178;4.450;2023-05-07T14:48:08;24.20;99.90
25937;DHT22;13733;51.178;4.450;2023-05-07T14:50:34;24.30;99.90
25937;DHT22;13733;51.178;4.450;2023-05-07T14:53:00;24.40;99.90
25937;DHT22;13733;51.178;4.450;2023-05-07T14:55:26;24.30;99.90
25937;DHT22;13733;51.178;4.450;2023-05-07T14:57:52;24.60;99.90
25937;DHT22;13733;51.178;4.450;2023-05-07T15:00:18;24.70;99.90
25937;DHT22;13733;51.178;4.450;2023-05-07T15:02:44;24.80;99.90
25937;DHT22;13733;51.178;4.450;2023-05-07T15:05:11;24.90;99.90
25937;DHT22;13733;51.178;4.450;2023-05-07T15:07:36;24.90;99.90
25937;DHT22;13733;51.178;4.450;2023-05-07T15:10:02;24.90;99.90
25937;DHT22;13733;51.178;4.450;2023-05-07T15:12:28;25.00;99.90
25937;DHT22;13733;51.178;4.450;2023-05-07T15:14:54;24.90;99.90
25937;DHT22;13733;51.178;4.450;2023-05-07T15:17:20;24.70;99.90
25937;DHT22;13733;51.178;4.450;2023-05-07T15:19:46;24.80;99.90
25937;DHT22;13733;51.178;4.450;2023-05-07T15:22:12;24.90;99.90
25937;DHT22;13733;51.178;4.450;2023-05-07T15:24:38;24.90;99.90
25937;DHT22;13733;51.178;4.450;2023-05-07T15:27:03;25.20;99.90
25937;DHT22;13733;51.178;4.450;2023-05-07T15:29:29;25.30;99.90
25937;DHT22;13733;51.178;4.450;2023-05-07T15:31:57;25.20;99.90
25937;DHT22;13733;51.178;4.450;2023-05-07T15:34:23;25.20;99.90
25937;DHT22;13733;51.178;4.450;2023-05-07T15:36:49;25.30;99.90
25937;DHT22;13733;51.178;4.450;2023-05-07T15:39:16;25.40;99.90
25937;DHT22;13733;51.178;4.450;2023-05-07T15:41:41;25.30;99.90
25937;DHT22;13733;51.178;4.450;2023-05-07T15:44:07;25.20;99.90
25937;DHT22;13733;51.178;4.450;2023-05-07T15:46:33;24.80;99.90
25937;DHT22;13733;51.178;4.450;2023-05-07T15:49:01;24.60;99.90
25937;DHT22;13733;51.178;4.450;2023-05-07T15:51:28;24.30;99.90
25937;DHT22;13733;51.178;4.450;2023-05-07T15:53:55;23.80;99.90
25937;DHT22;13733;51.178;4.450;2023-05-07T15:56:21;23.80;99.90
25937;DHT22;13733;51.178;4.450;2023-05-07T15:58:46;23.90;99.90